Time;durP1;ratioP1;P1;durP2;ratioP2;P2;SDS_P1;SDS_P2;PMS_P1;PMS_P2;Temp;Humidity;BMP_temperature;BMP_pressure;BME280_temperature;BME280_humidity;BME280_pressure;Samples;Min_cycle;Max_cycle;Signal;HPM_P1;HPM_P2
2024/01/26 00:01:48;;;;;;;2.20;0.80;;;;;;;;;;5120769;27;20059;-61
2024/01/26 00:04:13;;;;;;;1.13;1.03;;;;;;;;;;5112268;27;20056;-62
2024/01/26 00:06:39;;;;;;;2.07;1.43;;;;;;;;;;5101644;28;20031;-62
2024/01/26 00:09:11;;;;;;;2.47;1.37;;;;;;;;;;5116156;27;20481;-62
2024/01/26 00:11:36;;;;;;;0.67;0.67;;;;;;;;;;5112655;27;20119;-65
2024/01/26 00:14:01;;;;;;;1.83;1.23;;;;;;;;;;5118512;27;20437;-65
2024/01/26 00:16:27;;;;;;;1.70;1.47;;;;;;;;;;5117356;27;20420;-65
2024/01/26 00:18:52;;;;;;;3.57;1.27;;;;;;;;;;5123750;27;20046;-65
2024/01/26 00:21:18;;;;;;;4.83;2.43;;;;;;;;;;5123217;27;20027;-65
2024/01/26 00:23:43;;;;;;;0.90;0.83;;;;;;;;;;5115107;27;20046;-65
2024/01/26 00:26:09;;;;;;;2.77;1.27;;;;;;;;;;5114568;27;20028;-65
2024/01/26 00:28:34;;;;;;;0.67;0.67;;;;;;;;;;5111074;27;20347;-65
2024/01/26 00:30:59;;;;;;;2.47;2.03;;;;;;;;;;5111533;27;20036;-65
2024/01/26 00:33:24;;;;;;;0.67;0.67;;;;;;;;;;5115904;27;20111;-65
2024/01/26 00:35:50;;;;;;;1.43;1.17;;;;;;;;;;5114935;27;20012;-65
2024/01/26 00:38:15;;;;;;;2.60;1.33;;;;;;;;;;5112096;27;20458;-65
2024/01/26 00:40:40;;;;;;;33.20;2.40;;;;;;;;;;5114759;27;20027;-65
2024/01/26 00:43:06;;;;;;;0.93;0.77;;;;;;;;;;5113902;27;20034;-65
2024/01/26 00:45:31;;;;;;;2.87;2.13;;;;;;;;;;5109648;27;20016;-65
2024/01/26 00:47:56;;;;;;;2.40;1.27;;;;;;;;;;5111106;27;20039;-65
2024/01/26 00:50:21;;;;;;;1.07;0.90;;;;;;;;;;5108345;27;20036;-65
2024/01/26 00:52:47;;;;;;;1.30;1.20;;;;;;;;;;5107092;27;20031;-65
2024/01/26 00:55:12;;;;;;;4.23;2.50;;;;;;;;;;5115554;27;20379;-66
2024/01/26 00:57:39;;;;;;;0.67;0.67;;;;;;;;;;5113945;27;20023;-65
2024/01/26 01:00:07;;;;;;;2.23;1.43;;;;;;;;;;5106962;27;20470;-65
2024/01/26 01:02:32;;;;;;;1.33;1.23;;;;;;;;;;5107923;27;20024;-65
2024/01/26 01:04:58;;;;;;;2.03;1.63;;;;;;;;;;5091031;28;20052;-65
2024/01/26 01:07:23;;;;;;;2.77;1.90;;;;;;;;;;5087336;28;20019;-65
2024/01/26 01:09:49;;;;;;;0.93;0.50;;;;;;;;;;5095871;28;20105;-65
2024/01/26 01:12:14;;;;;;;0.50;0.50;;;;;;;;;;5094927;28;20012;-65
2024/01/26 01:14:40;;;;;;;1.73;1.60;;;;;;;;;;5100739;28;20411;-65
2024/01/26 01:17:05;;;;;;;2.10;1.43;;;;;;;;;;5098581;28;20027;-66
2024/01/26 01:19:31;;;;;;;1.43;1.33;;;;;;;;;;5096688;28;20016;-65
2024/01/26 01:21:56;;;;;;;0.60;0.60;;;;;;;;;;5099308;28;20077;-66
2024/01/26 01:24:21;;;;;;;1.87;1.13;;;;;;;;;;5098322;28;20039;-65
2024/01/26 01:26:46;;;;;;;1.83;0.83;;;;;;;;;;5101476;28;20015;-66
2024/01/26 01:29:12;;;;;;;1.50;0.70;;;;;;;;;;5098927;28;20023;-65
2024/01/26 01:31:37;;;;;;;1.30;1.20;;;;;;;;;;5097365;28;20023;-65
2024/01/26 01:34:04;;;;;;;2.37;1.73;;;;;;;;;;5092339;28;20027;-66
2024/01/26 01:36:30;;;;;;;0.50;0.50;;;;;;;;;;5094625;28;20019;-66
2024/01/26 01:38:55;;;;;;;0.70;0.70;;;;;;;;;;5094909;28;20038;-65
2024/01/26 01:41:21;;;;;;;2.77;0.73;;;;;;;;;;5091667;28;20025;-65
2024/01/26 01:43:53;;;;;;;1.83;1.20;;;;;;;;;;5094329;28;20388;-66
2024/01/26 01:46:18;;;;;;;0.57;0.57;;;;;;;;;;5088800;28;20073;-65
2024/01/26 01:48:43;;;;;;;0.53;0.53;;;;;;;;;;5091082;28;20020;-66
2024/01/26 01:51:09;;;;;;;0.70;0.70;;;;;;;;;;5091516;28;20023;-65
2024/01/26 01:53:35;;;;;;;1.93;0.90;;;;;;;;;;5089130;28;20104;-65
2024/01/26 01:56:00;;;;;;;5.03;1.70;;;;;;;;;;5086292;28;20401;-66
2024/01/26 01:58:26;;;;;;;1.77;1.00;;;;;;;;;;5089216;28;20166;-65
2024/01/26 02:00:51;;;;;;;3.00;2.17;;;;;;;;;;5092290;28;20404;-65
2024/01/26 02:03:16;;;;;;;5.63;1.57;;;;;;;;;;5097464;28;20047;-66
2024/01/26 02:05:43;;;;;;;1.53;0.73;;;;;;;;;;5109837;27;20031;-66
2024/01/26 02:08:08;;;;;;;4.33;1.73;;;;;;;;;;5114317;27;20023;-65
2024/01/26 02:10:33;;;;;;;0.73;0.70;;;;;;;;;;5118541;27;20387;-65
2024/01/26 02:12:59;;;;;;;0.50;0.50;;;;;;;;;;5114497;27;20055;-65
2024/01/26 02:15:24;;;;;;;1.60;0.93;;;;;;;;;;5112942;27;20065;-65
2024/01/26 02:17:49;;;;;;;0.60;0.60;;;;;;;;;;5117383;27;20102;-65
2024/01/26 02:20:14;;;;;;;0.33;0.33;;;;;;;;;;5119673;27;20061;-65
2024/01/26 02:22:40;;;;;;;6.17;1.77;;;;;;;;;;5124128;27;20344;-65
2024/01/26 02:25:05;;;;;;;2.90;1.27;;;;;;;;;;5116285;27;20030;-65
2024/01/26 02:27:32;;;;;;;2.83;1.77;;;;;;;;;;5110950;27;20024;-65
2024/01/26 02:29:57;;;;;;;2.90;1.20;;;;;;;;;;5117756;27;20115;-65
2024/01/26 02:32:22;;;;;;;1.33;1.23;;;;;;;;;;5115959;27;20094;-65
2024/01/26 02:34:48;;;;;;;2.63;1.40;;;;;;;;;;5120622;27;20015;-65
2024/01/26 02:37:15;;;;;;;2.17;1.97;;;;;;;;;;5111224;27;20019;-65
2024/01/26 02:39:41;;;;;;;0.73;0.73;;;;;;;;;;5117593;27;20058;-65
2024/01/26 02:42:06;;;;;;;2.70;1.53;;;;;;;;;;5116486;27;20478;-65
2024/01/26 02:44:32;;;;;;;2.63;1.93;;;;;;;;;;5110893;27;20019;-65
2024/01/26 02:46:57;;;;;;;2.13;1.70;;;;;;;;;;5110718;27;20019;-65
2024/01/26 02:49:22;;;;;;;3.87;1.77;;;;;;;;;;5113224;27;20103;-65
2024/01/26 02:51:48;;;;;;;2.57;1.17;;;;;;;;;;5114583;28;20034;-65
2024/01/26 02:54:13;;;;;;;1.70;1.17;;;;;;;;;;5112288;28;20019;-65
2024/01/26 02:56:38;;;;;;;1.93;1.63;;;;;;;;;;5112523;28;20072;-66
2024/01/26 02:59:03;;;;;;;5.70;1.63;;;;;;;;;;5110435;28;20047;-65
2024/01/26 03:01:29;;;;;;;0.93;0.87;;;;;;;;;;5110190;28;20016;-65
2024/01/26 03:03:54;;;;;;;0.97;0.87;;;;;;;;;;5102437;28;20467;-65
2024/01/26 03:06:19;;;;;;;1.23;1.07;;;;;;;;;;5104134;28;20436;-65
2024/01/26 03:08:44;;;;;;;2.30;1.63;;;;;;;;;;5111106;28;20058;-66
2024/01/26 03:11:11;;;;;;;1.67;1.33;;;;;;;;;;5113694;28;20146;-65
2024/01/26 03:13:36;;;;;;;0.80;0.80;;;;;;;;;;5111929;28;20506;-65
2024/01/26 03:16:02;;;;;;;1.63;1.13;;;;;;;;;;5109926;28;20011;-65
2024/01/26 03:18:27;;;;;;;2.80;1.97;;;;;;;;;;5124110;28;20102;-65
2024/01/26 03:20:52;;;;;;;2.13;1.43;;;;;;;;;;5113314;28;20031;-65
2024/01/26 03:23:17;;;;;;;2.43;2.10;;;;;;;;;;5112915;28;20088;-66
2024/01/26 03:25:43;;;;;;;7.37;3.63;;;;;;;;;;5110098;28;20029;-65
2024/01/26 03:28:08;;;;;;;2.27;1.97;;;;;;;;;;5121720;28;20436;-65
2024/01/26 03:30:34;;;;;;;2.00;1.80;;;;;;;;;;5121150;28;20043;-65
2024/01/26 03:32:59;;;;;;;1.93;1.23;;;;;;;;;;5119525;28;20085;-65
2024/01/26 03:35:26;;;;;;;2.40;2.00;;;;;;;;;;5112441;28;20023;-65
2024/01/26 03:37:51;;;;;;;2.90;2.40;;;;;;;;;;5121711;28;20027;-65
2024/01/26 03:40:17;;;;;;;1.97;1.00;;;;;;;;;;5116677;28;20018;-65
2024/01/26 03:42:42;;;;;;;0.30;0.30;;;;;;;;;;5115541;28;20598;-65
2024/01/26 03:45:08;;;;;;;1.80;1.17;;;;;;;;;;5116186;28;20023;-65
2024/01/26 03:47:33;;;;;;;2.73;1.57;;;;;;;;;;5117593;28;20384;-65
2024/01/26 03:49:58;;;;;;;19.83;2.17;;;;;;;;;;5111722;28;20027;-65
2024/01/26 03:52:23;;;;;;;2.30;1.97;;;;;;;;;;5110325;28;20020;-65
2024/01/26 03:54:49;;;;;;;3.17;1.57;;;;;;;;;;5110849;28;20007;-65
2024/01/26 03:57:14;;;;;;;3.53;2.13;;;;;;;;;;5113101;28;20080;-65
2024/01/26 03:59:40;;;;;;;2.70;1.93;;;;;;;;;;5111354;27;20047;-65
2024/01/26 04:02:05;;;;;;;1.57;1.23;;;;;;;;;;5110830;27;20380;-65
2024/01/26 04:04:30;;;;;;;0.97;0.90;;;;;;;;;;5095602;28;20043;-65
2024/01/26 04:06:56;;;;;;;2.30;1.90;;;;;;;;;;5093789;28;20081;-65
2024/01/26 04:09:21;;;;;;;1.40;0.93;;;;;;;;;;5097342;28;20419;-65
2024/01/26 04:11:47;;;;;;;10.80;1.87;;;;;;;;;;5094519;28;20085;-65
2024/01/26 04:14:12;;;;;;;1.20;1.10;;;;;;;;;;5090956;28;20059;-65
2024/01/26 04:16:38;;;;;;;2.03;1.43;;;;;;;;;;5087720;28;20027;-65
2024/01/26 04:19:03;;;;;;;0.60;0.60;;;;;;;;;;5088179;28;20023;-64
2024/01/26 04:21:29;;;;;;;2.37;2.07;;;;;;;;;;5094658;28;20020;-65
2024/01/26 04:23:54;;;;;;;1.43;1.13;;;;;;;;;;5095940;28;20492;-65
2024/01/26 04:26:19;;;;;;;4.00;1.87;;;;;;;;;;5092037;28;20028;-65
2024/01/26 04:28:45;;;;;;;4.43;1.90;;;;;;;;;;5090637;28;20028;-65
2024/01/26 04:31:10;;;;;;;1.00;0.90;;;;;;;;;;5094214;28;20028;-65
2024/01/26 04:33:35;;;;;;;5.27;1.10;;;;;;;;;;5093964;28;20020;-65
2024/01/26 04:36:01;;;;;;;1.33;1.23;;;;;;;;;;5090300;28;20017;-65
2024/01/26 04:38:26;;;;;;;0.70;0.70;;;;;;;;;;5087719;28;20521;-65
2024/01/26 04:40:51;;;;;;;1.90;1.33;;;;;;;;;;5088655;28;20111;-65
2024/01/26 04:43:17;;;;;;;1.57;1.13;;;;;;;;;;5085704;28;20374;-65
2024/01/26 04:45:43;;;;;;;4.23;1.60;;;;;;;;;;5091544;28;20028;-65
2024/01/26 04:48:08;;;;;;;0.90;0.87;;;;;;;;;;5087308;28;20039;-65
2024/01/26 04:50:33;;;;;;;2.43;1.67;;;;;;;;;;5093335;28;20085;-64
2024/01/26 04:52:59;;;;;;;1.17;1.07;;;;;;;;;;5091214;28;20392;-65
2024/01/26 04:55:33;;;;;;;0.87;0.83;;;;;;;;;;5095382;28;20016;-65
2024/01/26 04:57:58;;;;;;;1.30;1.03;;;;;;;;;;5079622;28;20105;-65
2024/01/26 05:00:24;;;;;;;1.70;1.50;;;;;;;;;;5085469;28;20071;-65
2024/01/26 05:02:50;;;;;;;1.33;1.20;;;;;;;;;;5092792;28;20027;-65
2024/01/26 05:05:15;;;;;;;3.80;2.33;;;;;;;;;;5110372;27;20226;-65
2024/01/26 05:07:41;;;;;;;2.20;2.00;;;;;;;;;;5116220;27;20019;-65
2024/01/26 05:10:06;;;;;;;2.10;1.10;;;;;;;;;;5109338;27;20507;-65
2024/01/26 05:12:32;;;;;;;3.90;2.60;;;;;;;;;;5109492;27;20020;-65
2024/01/26 05:14:57;;;;;;;2.37;1.53;;;;;;;;;;5093068;27;20114;-65
2024/01/26 05:17:22;;;;;;;6.60;2.47;;;;;;;;;;5110138;27;20045;-65
2024/01/26 05:19:48;;;;;;;2.57;1.50;;;;;;;;;;5109829;27;20024;-64
2024/01/26 05:22:13;;;;;;;1.60;1.33;;;;;;;;;;5098476;27;20074;-65
2024/01/26 05:24:39;;;;;;;1.20;0.73;;;;;;;;;;5106372;28;20379;-65
2024/01/26 05:27:04;;;;;;;1.63;1.37;;;;;;;;;;5104199;27;20031;-65
2024/01/26 05:29:29;;;;;;;2.10;1.90;;;;;;;;;;5104752;27;20034;-64
2024/01/26 05:31:55;;;;;;;1.10;0.97;;;;;;;;;;5111224;27;20490;-64
2024/01/26 05:34:20;;;;;;;1.73;1.40;;;;;;;;;;5109147;27;20015;-64
2024/01/26 05:36:45;;;;;;;0.60;0.57;;;;;;;;;;5114962;27;20024;-64
2024/01/26 05:39:11;;;;;;;2.67;2.10;;;;;;;;;;5109692;27;20376;-65
2024/01/26 05:41:36;;;;;;;1.37;1.17;;;;;;;;;;5115493;27;20030;-65
2024/01/26 05:44:02;;;;;;;1.37;1.27;;;;;;;;;;5109712;28;20775;-64
2024/01/26 05:46:27;;;;;;;2.13;0.70;;;;;;;;;;5094527;28;20035;-64
2024/01/26 05:48:52;;;;;;;4.43;2.13;;;;;;;;;;5116665;27;20023;-64
2024/01/26 05:51:18;;;;;;;1.53;0.77;;;;;;;;;;5117615;27;20016;-64
2024/01/26 05:53:43;;;;;;;1.90;1.43;;;;;;;;;;5106448;27;20425;-64
2024/01/26 05:56:08;;;;;;;2.50;1.47;;;;;;;;;;5107985;27;20019;-64
2024/01/26 05:58:33;;;;;;;2.80;1.00;;;;;;;;;;5112160;27;20168;-64
2024/01/26 06:00:59;;;;;;;0.70;0.60;;;;;;;;;;5109645;27;20023;-65
2024/01/26 06:03:24;;;;;;;2.83;1.37;;;;;;;;;;5109412;27;20055;-65
2024/01/26 06:05:49;;;;;;;3.13;2.10;;;;;;;;;;5115696;27;20379;-65
2024/01/26 06:08:14;;;;;;;1.27;1.03;;;;;;;;;;5107301;27;20019;-64
2024/01/26 06:10:40;;;;;;;1.40;1.10;;;;;;;;;;5111929;27;20042;-65
2024/01/26 06:13:05;;;;;;;2.87;1.33;;;;;;;;;;5085755;28;20395;-65
2024/01/26 06:15:30;;;;;;;3.13;1.30;;;;;;;;;;5104603;27;20464;-65
2024/01/26 06:17:56;;;;;;;1.80;1.17;;;;;;;;;;5106511;27;20275;-65
2024/01/26 06:20:21;;;;;;;5.07;1.83;;;;;;;;;;5113186;27;20020;-65
2024/01/26 06:22:46;;;;;;;3.23;1.53;;;;;;;;;;5117805;27;20023;-64
2024/01/26 06:25:12;;;;;;;0.67;0.60;;;;;;;;;;5109735;28;20027;-64
2024/01/26 06:27:38;;;;;;;0.30;0.30;;;;;;;;;;5112100;27;20061;-65
2024/01/26 06:30:03;;;;;;;0.50;0.50;;;;;;;;;;5113673;27;20027;-65
2024/01/26 06:32:29;;;;;;;1.13;1.00;;;;;;;;;;5095946;28;20026;-65
2024/01/26 06:34:54;;;;;;;20.27;7.43;;;;;;;;;;5109934;28;20027;-64
2024/01/26 06:37:21;;;;;;;21.30;8.60;;;;;;;;;;5111370;27;20023;-65
2024/01/26 06:39:46;;;;;;;16.93;7.67;;;;;;;;;;5103032;28;20539;-65
2024/01/26 06:42:11;;;;;;;21.40;8.20;;;;;;;;;;5109752;28;20118;-65
2024/01/26 06:44:36;;;;;;;18.90;8.43;;;;;;;;;;5111894;27;20023;-65
2024/01/26 06:47:02;;;;;;;19.33;7.97;;;;;;;;;;5109827;27;20114;-65
2024/01/26 06:49:27;;;;;;;16.70;7.00;;;;;;;;;;5103243;27;20484;-65
2024/01/26 06:51:52;;;;;;;16.97;7.00;;;;;;;;;;5109080;28;20466;-65
2024/01/26 06:54:18;;;;;;;21.93;9.57;;;;;;;;;;5117072;28;20031;-65
2024/01/26 06:56:43;;;;;;;23.90;9.87;;;;;;;;;;5114450;28;20030;-65
2024/01/26 06:59:09;;;;;;;18.97;9.60;;;;;;;;;;5108571;28;20383;-65
2024/01/26 07:01:34;;;;;;;20.73;8.77;;;;;;;;;;5115530;28;20124;-65
2024/01/26 07:03:59;;;;;;;12.50;5.60;;;;;;;;;;5104360;28;20043;-65
2024/01/26 07:06:24;;;;;;;21.13;9.93;;;;;;;;;;5110366;28;20031;-65
2024/01/26 07:08:50;;;;;;;21.77;10.20;;;;;;;;;;5114507;28;20072;-64
2024/01/26 07:11:17;;;;;;;21.33;9.67;;;;;;;;;;5101400;28;20435;-65
2024/01/26 07:13:42;;;;;;;20.63;9.97;;;;;;;;;;5116385;28;20046;-65
2024/01/26 07:16:08;;;;;;;23.83;10.93;;;;;;;;;;5107677;28;20019;-65
2024/01/26 07:18:33;;;;;;;20.63;9.83;;;;;;;;;;5112749;28;20023;-65
2024/01/26 07:20:58;;;;;;;18.33;8.83;;;;;;;;;;5113661;28;20031;-65
2024/01/26 07:23:24;;;;;;;24.30;11.23;;;;;;;;;;5115703;28;20055;-65
2024/01/26 07:25:49;;;;;;;22.50;12.03;;;;;;;;;;5112789;28;20031;-64
2024/01/26 07:28:14;;;;;;;27.80;12.13;;;;;;;;;;5109198;28;20054;-64
2024/01/26 07:30:39;;;;;;;26.33;14.10;;;;;;;;;;5120610;28;20019;-65
2024/01/26 07:33:06;;;;;;;25.70;13.43;;;;;;;;;;5112736;27;20551;-65
2024/01/26 07:35:31;;;;;;;26.23;12.73;;;;;;;;;;5116945;27;20105;-65
2024/01/26 07:37:56;;;;;;;27.50;14.30;;;;;;;;;;5118242;27;20027;-64
2024/01/26 07:40:22;;;;;;;33.67;17.07;;;;;;;;;;5112185;27;20012;-65
2024/01/26 07:42:47;;;;;;;27.43;13.43;;;;;;;;;;5118571;27;20399;-65
2024/01/26 07:45:13;;;;;;;26.10;14.77;;;;;;;;;;5104396;27;20024;-64
2024/01/26 07:47:39;;;;;;;31.30;15.87;;;;;;;;;;5114990;27;20030;-65
2024/01/26 07:50:04;;;;;;;32.63;16.23;;;;;;;;;;5108029;27;20023;-65
2024/01/26 07:52:29;;;;;;;26.87;13.27;;;;;;;;;;5118939;27;20376;-65
2024/01/26 07:54:55;;;;;;;4.90;2.10;;;;;;;;;;5120673;27;20036;-65
2024/01/26 07:57:20;;;;;;;1.33;1.17;;;;;;;;;;5107924;27;20047;-65
2024/01/26 07:59:47;;;;;;;1.37;1.10;;;;;;;;;;5117122;27;20456;-64
2024/01/26 08:02:12;;;;;;;5.23;2.10;;;;;;;;;;5111989;27;20526;-64
2024/01/26 08:04:38;;;;;;;3.50;1.97;;;;;;;;;;5101697;27;20052;-64
2024/01/26 08:07:03;;;;;;;1.43;1.13;;;;;;;;;;5097266;28;20034;-65
2024/01/26 08:09:28;;;;;;;1.37;1.07;;;;;;;;;;5098719;28;20111;-64
2024/01/26 08:11:53;;;;;;;3.67;2.60;;;;;;;;;;5102455;28;20119;-65
2024/01/26 08:14:19;;;;;;;3.93;2.50;;;;;;;;;;5095596;28;20024;-65
2024/01/26 08:16:44;;;;;;;1.00;0.87;;;;;;;;;;5098241;28;20020;-64
2024/01/26 08:19:09;;;;;;;2.83;1.57;;;;;;;;;;5094845;28;20055;-65
2024/01/26 08:21:34;;;;;;;1.73;1.37;;;;;;;;;;5099151;28;20065;-65
2024/01/26 08:24:00;;;;;;;3.63;1.53;;;;;;;;;;5099581;28;20099;-63
2024/01/26 08:26:26;;;;;;;2.30;1.97;;;;;;;;;;5097918;28;20034;-62
2024/01/26 08:28:52;;;;;;;5.80;1.73;;;;;;;;;;5104403;28;20526;-62
2024/01/26 08:31:17;;;;;;;1.53;1.10;;;;;;;;;;5100525;28;20024;-63
2024/01/26 08:33:42;;;;;;;3.37;1.87;;;;;;;;;;5097601;28;20384;-63
2024/01/26 08:36:07;;;;;;;1.40;1.00;;;;;;;;;;5092157;28;20020;-63
2024/01/26 08:38:33;;;;;;;2.53;2.13;;;;;;;;;;5100926;28;20054;-62
2024/01/26 08:40:58;;;;;;;1.53;1.03;;;;;;;;;;5106163;28;20028;-62
2024/01/26 08:43:23;;;;;;;1.53;0.83;;;;;;;;;;5095720;28;20077;-62
2024/01/26 08:45:49;;;;;;;1.07;0.97;;;;;;;;;;5096039;28;20067;-63
2024/01/26 08:48:14;;;;;;;1.83;1.60;;;;;;;;;;5089211;28;20020;-63
2024/01/26 08:50:40;;;;;;;1.70;1.23;;;;;;;;;;5095838;28;20099;-62
2024/01/26 08:53:05;;;;;;;3.47;1.30;;;;;;;;;;5088646;28;20027;-62
2024/01/26 08:55:30;;;;;;;2.67;1.03;;;;;;;;;;5092254;28;20027;-63
2024/01/26 08:57:56;;;;;;;1.20;0.77;;;;;;;;;;5091467;28;20040;-63
2024/01/26 09:00:21;;;;;;;0.93;0.80;;;;;;;;;;5088889;28;20384;-63
2024/01/26 09:02:47;;;;;;;2.80;1.33;;;;;;;;;;5096522;28;20042;-63
2024/01/26 09:05:12;;;;;;;0.80;0.60;;;;;;;;;;5096782;28;20464;-62
2024/01/26 09:07:38;;;;;;;1.40;1.03;;;;;;;;;;5084950;28;20400;-63
2024/01/26 09:10:03;;;;;;;5.37;1.00;;;;;;;;;;5091498;28;20020;-62
2024/01/26 09:12:29;;;;;;;1.10;1.03;;;;;;;;;;5093229;28;20028;-63
2024/01/26 09:14:54;;;;;;;0.40;0.40;;;;;;;;;;5094988;28;20085;-63
2024/01/26 09:17:20;;;;;;;1.17;1.07;;;;;;;;;;5092477;28;20012;-62
2024/01/26 09:19:45;;;;;;;1.07;0.87;;;;;;;;;;5094551;28;20015;-63
2024/01/26 09:22:11;;;;;;;1.80;0.33;;;;;;;;;;5090144;28;20027;-62
2024/01/26 09:24:36;;;;;;;0.40;0.37;;;;;;;;;;5095961;28;20035;-62
2024/01/26 09:27:02;;;;;;;1.63;1.50;;;;;;;;;;5096717;28;20012;-63
2024/01/26 09:29:27;;;;;;;0.80;0.73;;;;;;;;;;5093886;28;20033;-62
2024/01/26 09:31:54;;;;;;;0.57;0.57;;;;;;;;;;5096082;28;20495;-62
2024/01/26 09:34:20;;;;;;;0.50;0.50;;;;;;;;;;5090753;28;20380;-63
2024/01/26 09:36:45;;;;;;;0.97;0.87;;;;;;;;;;5102256;28;20016;-62
2024/01/26 09:39:10;;;;;;;0.87;0.87;;;;;;;;;;5093197;28;20505;-63
2024/01/26 09:41:35;;;;;;;1.50;1.13;;;;;;;;;;5095688;28;20031;-62
2024/01/26 09:44:01;;;;;;;0.50;0.50;;;;;;;;;;5095216;28;20434;-62
2024/01/26 09:46:27;;;;;;;3.13;0.93;;;;;;;;;;5090179;28;20031;-61
2024/01/26 09:48:55;;;;;;;0.20;0.20;;;;;;;;;;5088077;28;20447;-61
2024/01/26 09:51:22;;;;;;;0.50;0.50;;;;;;;;;;5089144;28;20028;-61
2024/01/26 09:53:49;;;;;;;0.67;0.60;;;;;;;;;;5094202;28;20366;-61
2024/01/26 09:56:14;;;;;;;0.87;0.60;;;;;;;;;;5092180;28;20020;-60
2024/01/26 09:58:40;;;;;;;0.33;0.33;;;;;;;;;;5091533;28;20019;-61
2024/01/26 10:01:07;;;;;;;0.53;0.50;;;;;;;;;;5095820;28;20032;-61
2024/01/26 10:03:32;;;;;;;0.47;0.47;;;;;;;;;;5097166;28;20108;-61
2024/01/26 10:05:58;;;;;;;0.50;0.37;;;;;;;;;;5091125;28;20032;-61
2024/01/26 10:08:23;;;;;;;0.37;0.30;;;;;;;;;;5089917;28;20048;-61
2024/01/26 10:10:48;;;;;;;3.47;0.40;;;;;;;;;;5089222;28;20039;-60
2024/01/26 10:13:15;;;;;;;1.13;0.20;;;;;;;;;;5096972;28;20092;-62
2024/01/26 10:15:40;;;;;;;0.83;0.57;;;;;;;;;;5089914;28;20076;-60
2024/01/26 10:18:06;;;;;;;0.73;0.60;;;;;;;;;;5089026;28;20549;-61
2024/01/26 10:20:31;;;;;;;0.20;0.20;;;;;;;;;;5088364;28;20106;-61
2024/01/26 10:22:56;;;;;;;0.23;0.23;;;;;;;;;;5094278;28;20043;-62
2024/01/26 10:25:21;;;;;;;0.40;0.40;;;;;;;;;;5094772;28;20024;-62
2024/01/26 10:27:47;;;;;;;0.10;0.10;;;;;;;;;;5086466;28;20103;-61
2024/01/26 10:30:13;;;;;;;0.47;0.20;;;;;;;;;;5094864;28;20012;-63
2024/01/26 10:32:39;;;;;;;0.13;0.13;;;;;;;;;;5094491;28;20028;-62
2024/01/26 10:35:05;;;;;;;0.10;0.10;;;;;;;;;;5090496;28;20031;-62
2024/01/26 10:37:31;;;;;;;0.37;0.37;;;;;;;;;;5089941;28;20028;-61
2024/01/26 10:39:57;;;;;;;0.20;0.20;;;;;;;;;;5098502;28;20027;-62
2024/01/26 10:42:29;;;;;;;0.27;0.27;;;;;;;;;;5091823;28;20028;-63
2024/01/26 10:44:54;;;;;;;;;;;;;;;;;;5092277;28;20020;-62
2024/01/26 10:47:21;;;;;;;0.20;0.20;;;;;;;;;;5094587;28;19911;-62
2024/01/26 10:49:49;;;;;;;0.10;0.10;;;;;;;;;;5087762;28;20051;-61
2024/01/26 10:52:15;;;;;;;0.30;0.30;;;;;;;;;;5094624;28;20028;-62
2024/01/26 10:54:41;;;;;;;0.20;0.20;;;;;;;;;;5087699;28;20016;-62
2024/01/26 10:57:07;;;;;;;0.10;0.10;;;;;;;;;;5092520;28;20022;-63
2024/01/26 10:59:32;;;;;;;0.20;0.20;;;;;;;;;;5096616;28;20091;-63
2024/01/26 11:01:57;;;;;;;0.10;0.10;;;;;;;;;;5087313;28;20107;-62
2024/01/26 11:04:23;;;;;;;0.10;0.10;;;;;;;;;;5105121;28;20046;-62
2024/01/26 11:06:48;;;;;;;0.10;0.10;;;;;;;;;;5113831;28;20027;-62
2024/01/26 11:09:15;;;;;;;0.10;0.10;;;;;;;;;;5112328;27;20019;-62
2024/01/26 11:11:41;;;;;;;0.10;0.10;;;;;;;;;;5109429;27;20028;-61
2024/01/26 11:14:10;;;;;;;0.20;0.20;;;;;;;;;;5111681;27;20077;-61
2024/01/26 11:16:40;;;;;;;0.10;0.10;;;;;;;;;;5110248;27;20482;-61
2024/01/26 11:19:06;;;;;;;0.10;0.10;;;;;;;;;;5114524;27;20106;-61
2024/01/26 11:21:44;;;;;;;0.47;0.30;;;;;;;;;;5114837;27;20416;-61
2024/01/26 11:24:17;;;;;;;0.50;0.30;;;;;;;;;;5110431;27;20058;-61
2024/01/26 11:26:42;;;;;;;1.90;0.40;;;;;;;;;;5113769;27;20016;-61
2024/01/26 11:29:12;;;;;;;2.07;0.60;;;;;;;;;;5116362;27;20515;-60
2024/01/26 11:31:37;;;;;;;2.50;0.60;;;;;;;;;;5116885;27;20527;-61
2024/01/26 11:34:03;;;;;;;1.63;0.60;;;;;;;;;;5117233;27;20103;-61
2024/01/26 11:36:31;;;;;;;2.77;0.60;;;;;;;;;;5114431;27;20019;-61
2024/01/26 11:38:57;;;;;;;0.43;0.33;;;;;;;;;;5125402;27;20351;-61
2024/01/26 11:41:24;;;;;;;1.47;0.50;;;;;;;;;;5117578;27;20539;-61
2024/01/26 11:43:51;;;;;;;4.00;0.47;;;;;;;;;;5120215;27;20026;-62
2024/01/26 11:46:17;;;;;;;5.37;0.53;;;;;;;;;;5116937;27;20073;-61
2024/01/26 11:48:42;;;;;;;3.20;0.67;;;;;;;;;;5123323;27;20043;-62
2024/01/26 11:51:07;;;;;;;2.37;0.60;;;;;;;;;;5120634;27;20058;-61
2024/01/26 11:53:32;;;;;;;6.13;0.80;;;;;;;;;;5127180;27;20018;-60
2024/01/26 11:55:59;;;;;;;3.80;0.57;;;;;;;;;;5126108;27;20539;-63
2024/01/26 11:58:24;;;;;;;3.70;0.77;;;;;;;;;;5124223;27;20019;-63
2024/01/26 12:00:50;;;;;;;3.27;0.90;;;;;;;;;;5118439;27;20139;-63
2024/01/26 12:03:17;;;;;;;3.10;0.87;;;;;;;;;;5119130;27;20028;-63
2024/01/26 12:05:42;;;;;;;6.53;1.43;;;;;;;;;;5116285;28;20021;-63
2024/01/26 12:08:09;;;;;;;8.17;1.53;;;;;;;;;;5116034;28;20086;-63
2024/01/26 12:10:34;;;;;;;8.90;1.17;;;;;;;;;;5120387;28;20049;-63
2024/01/26 12:13:00;;;;;;;14.50;1.77;;;;;;;;;;5111134;28;20381;-64
2024/01/26 12:15:31;;;;;;;6.23;1.13;;;;;;;;;;5115197;28;20601;-64
2024/01/26 12:18:02;;;;;;;6.35;1.17;;;;;;;;;;5112950;28;20593;-64
2024/01/26 12:20:28;;;;;;;4.15;0.70;;;;;;;;;;5110462;28;20054;-64
2024/01/26 12:22:55;;;;;;;5.83;0.80;;;;;;;;;;5107132;28;20050;-63
2024/01/26 12:25:20;;;;;;;9.80;1.17;;;;;;;;;;5111926;28;20441;-64
2024/01/26 12:27:45;;;;;;;7.60;1.53;;;;;;;;;;5113489;28;20027;-64
2024/01/26 12:30:11;;;;;;;4.33;1.30;;;;;;;;;;5114347;28;20027;-63
2024/01/26 12:32:37;;;;;;;10.67;1.40;;;;;;;;;;5108244;28;20020;-64
2024/01/26 12:35:03;;;;;;;4.73;1.30;;;;;;;;;;5109927;28;20102;-63
2024/01/26 12:37:28;;;;;;;5.20;1.07;;;;;;;;;;5113294;28;20098;-63
2024/01/26 12:39:53;;;;;;;4.33;1.60;;;;;;;;;;5111553;28;20077;-63
2024/01/26 12:42:18;;;;;;;7.27;1.57;;;;;;;;;;5115798;28;20024;-63
2024/01/26 12:44:44;;;;;;;9.03;1.53;;;;;;;;;;5107556;28;20019;-63
2024/01/26 12:47:09;;;;;;;10.33;1.33;;;;;;;;;;5121262;28;20099;-63
2024/01/26 12:49:34;;;;;;;6.83;1.40;;;;;;;;;;5113456;28;20035;-63
2024/01/26 12:52:00;;;;;;;7.30;1.63;;;;;;;;;;5111997;28;20472;-63
2024/01/26 12:54:25;;;;;;;4.20;1.00;;;;;;;;;;5119536;28;20019;-63
2024/01/26 12:56:50;;;;;;;9.33;1.50;;;;;;;;;;5119333;28;20019;-62
2024/01/26 12:59:16;;;;;;;5.57;1.43;;;;;;;;;;5117982;28;20498;-63
2024/01/26 13:01:41;;;;;;;7.43;1.23;;;;;;;;;;5121569;28;20075;-63
2024/01/26 13:04:07;;;;;;;9.23;1.20;;;;;;;;;;5049793;27;2032356;-63
2024/01/26 13:06:35;;;;;;;6.53;0.93;;;;;;;;;;5122099;27;20387;-63
2024/01/26 13:09:01;;;;;;;8.80;1.30;;;;;;;;;;5118584;27;20027;-63
2024/01/26 13:11:26;;;;;;;9.83;1.20;;;;;;;;;;5117020;27;20068;-63
2024/01/26 13:13:52;;;;;;;7.93;0.90;;;;;;;;;;5116481;27;20040;-63
2024/01/26 13:16:18;;;;;;;7.83;1.40;;;;;;;;;;5114977;27;20031;-63
2024/01/26 13:18:45;;;;;;;4.60;1.10;;;;;;;;;;5112878;27;20078;-63
2024/01/26 13:21:13;;;;;;;8.13;1.20;;;;;;;;;;5116103;27;20047;-63
2024/01/26 13:23:39;;;;;;;9.60;1.50;;;;;;;;;;5115228;27;20028;-64
2024/01/26 13:26:05;;;;;;;10.00;2.40;;;;;;;;;;5113154;27;20055;-63
2024/01/26 13:28:30;;;;;;;11.87;1.60;;;;;;;;;;5113933;27;20023;-64
2024/01/26 13:30:56;;;;;;;8.20;1.17;;;;;;;;;;5104480;27;20034;-63
2024/01/26 13:33:21;;;;;;;8.23;1.57;;;;;;;;;;5108377;28;20023;-63
2024/01/26 13:35:47;;;;;;;8.10;1.23;;;;;;;;;;5110681;27;20028;-64
2024/01/26 13:38:12;;;;;;;6.70;1.37;;;;;;;;;;5111872;27;20015;-63
2024/01/26 13:40:38;;;;;;;7.10;1.00;;;;;;;;;;5111303;27;20023;-63
2024/01/26 13:43:04;;;;;;;6.87;0.93;;;;;;;;;;5101220;27;20132;-63
2024/01/26 13:45:29;;;;;;;8.87;1.27;;;;;;;;;;5114377;27;20028;-63
2024/01/26 13:47:54;;;;;;;4.97;1.30;;;;;;;;;;5113318;27;20024;-63
2024/01/26 13:50:20;;;;;;;14.70;1.77;;;;;;;;;;5114426;27;20073;-63
2024/01/26 13:52:45;;;;;;;8.27;1.63;;;;;;;;;;5114316;27;20019;-63
2024/01/26 13:55:10;;;;;;;5.77;0.87;;;;;;;;;;5118777;27;20023;-63
2024/01/26 13:57:36;;;;;;;10.27;1.40;;;;;;;;;;5121635;27;20383;-64
2024/01/26 14:00:01;;;;;;;8.80;2.10;;;;;;;;;;5119252;27;20016;-64
2024/01/26 14:02:26;;;;;;;8.17;1.20;;;;;;;;;;5118609;27;20045;-64
2024/01/26 14:04:52;;;;;;;19.43;1.23;;;;;;;;;;5096621;28;21375;-63
2024/01/26 14:07:17;;;;;;;20.83;1.90;;;;;;;;;;5097932;28;20038;-63
2024/01/26 14:09:42;;;;;;;6.83;1.13;;;;;;;;;;5101684;28;20031;-63
2024/01/26 14:12:08;;;;;;;2.83;0.77;;;;;;;;;;5097535;28;20165;-63
2024/01/26 14:14:33;;;;;;;2.97;0.70;;;;;;;;;;5092820;28;20031;-60
2024/01/26 14:16:59;;;;;;;5.40;1.37;;;;;;;;;;5094129;28;20020;-60
2024/01/26 14:19:24;;;;;;;6.27;0.87;;;;;;;;;;5098101;28;20019;-60
2024/01/26 14:21:50;;;;;;;3.30;0.60;;;;;;;;;;5096755;28;20074;-60
2024/01/26 14:24:15;;;;;;;7.23;1.23;;;;;;;;;;5098536;28;20393;-62
2024/01/26 14:26:40;;;;;;;7.67;1.00;;;;;;;;;;5094246;28;20031;-61
2024/01/26 14:29:10;;;;;;;6.13;1.33;;;;;;;;;;5094502;28;20039;-60
2024/01/26 14:31:36;;;;;;;11.87;1.47;;;;;;;;;;5096995;28;20024;-60